Time;durP1;ratioP1;P1;durP2;ratioP2;P2;SDS_P1;SDS_P2;PMS_P1;PMS_P2;Temp;Humidity;BMP_temperature;BMP_pressure;BME280_temperature;BME280_humidity;BME280_pressure;Samples;Min_cycle;Max_cycle;Signal;HPM_P1;HPM_P2
2022/06/05 00:00:42;;;;;;;7.07;5.80;;;;;;;18.37;58.67;101602.91;5006717;28;20069;-73
2022/06/05 00:03:22;;;;;;;7.60;5.70;;;;;;;18.32;59.72;101597.81;5002522;28;20084;-71
2022/06/05 00:06:13;;;;;;;7.15;6.13;;;;;;;18.28;60.04;101596.38;4996070;28;20045;-72
2022/06/05 00:09:02;;;;;;;9.68;6.35;;;;;;;18.22;60.09;101596.94;5004243;28;20045;-73
2022/06/05 00:11:43;;;;;;;7.80;5.50;;;;;;;18.17;59.99;101593.75;4998036;28;20057;-72
2022/06/05 00:14:09;;;;;;;10.18;6.03;;;;;;;18.16;60.39;101582.88;5005918;28;20038;-71
2022/06/05 00:16:34;;;;;;;9.02;6.30;;;;;;;18.09;61.51;101568.78;4989006;28;20052;-72
2022/06/05 00:19:00;;;;;;;10.05;6.75;;;;;;;18.07;60.96;101571.69;4983784;28;20034;-72
2022/06/05 00:21:25;;;;;;;12.48;6.05;;;;;;;18.06;61.30;101574.59;4995797;28;20042;-73
2022/06/05 00:23:52;;;;;;;8.18;6.15;;;;;;;18.05;60.55;101581.13;5006753;28;20373;-73
2022/06/05 00:26:29;;;;;;;9.20;6.40;;;;;;;18.01;60.52;101569.53;5003113;28;20483;-73
2022/06/05 00:29:00;;;;;;;7.13;6.20;;;;;;;17.99;60.34;101574.28;4984547;28;20052;-73
2022/06/05 00:31:52;;;;;;;11.15;6.50;;;;;;;18.01;59.99;101568.66;5006478;28;20565;-72
2022/06/05 00:34:18;;;;;;;9.20;5.82;;;;;;;17.96;61.07;101560.81;4996404;28;20045;-72
2022/06/05 00:37:06;;;;;;;7.75;6.20;;;;;;;17.93;60.38;101555.59;4996262;28;20417;-73
2022/06/05 00:39:38;;;;;;;8.23;5.95;;;;;;;17.87;61.76;101541.53;5002194;28;20457;-73
2022/06/05 00:42:12;;;;;;;8.83;6.13;;;;;;;17.88;60.88;101543.25;4997242;28;20557;-72
2022/06/05 00:44:43;;;;;;;9.70;6.57;;;;;;;17.84;61.81;101539.91;5005975;28;20068;-71
2022/06/05 00:47:12;;;;;;;8.45;6.43;;;;;;;17.80;61.41;101535.69;5006366;28;20038;-71
2022/06/05 00:49:48;;;;;;;9.60;7.13;;;;;;;17.77;61.06;101534.13;4999176;28;20083;-72
2022/06/05 00:52:18;;;;;;;7.47;6.15;;;;;;;17.75;61.67;101544.38;4989411;28;20469;-72
2022/06/05 00:54:44;;;;;;;9.32;6.43;;;;;;;17.72;62.00;101544.66;4986008;28;20042;-69
2022/06/05 00:57:13;;;;;;;8.95;6.90;;;;;;;17.66;63.09;101547.94;4992964;28;20468;-72
2022/06/05 00:59:41;;;;;;;10.13;6.75;;;;;;;17.59;62.26;101544.88;4996857;28;20081;-72
2022/06/05 01:02:08;;;;;;;13.38;6.75;;;;;;;17.56;62.39;101545.16;5002522;28;20132;-73
2022/06/05 01:04:35;;;;;;;9.30;6.93;;;;;;;17.57;62.32;101546.03;4982695;28;20039;-73
2022/06/05 01:07:01;;;;;;;11.18;6.93;;;;;;;17.52;62.55;101537.31;5008412;28;20184;-73
2022/06/05 01:09:26;;;;;;;8.30;7.03;;;;;;;17.46;63.71;101541.50;5010340;28;20116;-74
2022/06/05 01:12:13;;;;;;;11.13;6.40;;;;;;;17.44;62.08;101538.03;5008368;28;20061;-74
2022/06/05 01:15:09;;;;;;;12.00;7.53;;;;;;;17.45;62.58;101533.41;4991800;28;20524;-73
2022/06/05 01:17:43;;;;;;;9.45;6.15;;;;;;;17.43;62.20;101532.66;4981636;28;20108;-74
2022/06/05 01:20:37;;;;;;;9.88;6.50;;;;;;;17.42;62.82;101541.91;4998517;28;20046;-72
2022/06/05 01:23:36;;;;;;;9.75;6.50;;;;;;;17.45;62.45;101541.66;5006210;28;20386;-72
2022/06/05 01:26:19;;;;;;;10.50;6.30;;;;;;;17.48;62.48;101539.47;5003166;28;20034;-73
2022/06/05 01:29:00;;;;;;;10.73;7.10;;;;;;;17.53;62.31;101544.56;5009327;28;20588;-72
2022/06/05 01:31:32;;;;;;;14.18;6.95;;;;;;;17.52;62.81;101579.47;5009131;28;20073;-70
2022/06/05 01:34:12;;;;;;;7.55;5.95;;;;;;;17.57;62.90;101582.66;4998700;28;20412;-72
2022/06/05 01:37:30;;;;;;;9.57;6.93;;;;;;;17.61;61.30;101569.50;4982846;28;20034;-74
2022/06/05 01:40:05;;;;;;;9.38;6.53;;;;;;;17.56;62.27;101610.31;4993967;28;20060;-72
2022/06/05 01:42:37;;;;;;;9.57;7.65;;;;;;;17.52;63.44;101617.97;5009252;28;20148;-73
2022/06/05 01:45:09;;;;;;;11.20;7.40;;;;;;;17.47;63.94;101589.13;5005244;28;20489;-72
2022/06/05 01:47:41;;;;;;;10.13;6.45;;;;;;;17.35;63.87;101541.63;5006494;28;20119;-72
2022/06/05 01:50:14;;;;;;;11.23;7.15;;;;;;;17.30;64.06;101547.53;4988252;28;20095;-73
2022/06/05 01:52:50;;;;;;;7.97;6.75;;;;;;;17.36;63.61;101565.34;5009364;28;20048;-73
2022/06/05 01:55:22;;;;;;;11.02;6.50;;;;;;;17.41;63.70;101573.19;4993391;28;20189;-72
2022/06/05 01:57:49;;;;;;;8.85;6.88;;;;;;;17.43;62.73;101569.28;5002402;28;20631;-72
2022/06/05 02:00:18;;;;;;;11.00;7.25;;;;;;;17.39;65.01;101554.06;4989093;28;20045;-73
2022/06/05 02:03:09;;;;;;;10.40;6.38;;;;;;;17.23;65.20;101532.56;5000793;28;20037;-72
2022/06/05 02:05:51;;;;;;;12.35;7.25;;;;;;;17.19;64.26;101528.34;4983725;28;20485;-73
2022/06/05 02:08:33;;;;;;;10.25;7.13;;;;;;;17.24;64.37;101525.19;5009395;28;20045;-71
2022/06/05 02:10:58;;;;;;;;;;;;;;;17.30;62.86;101513.66;5008028;28;20042;-73
2022/06/05 02:13:24;;;;;;;8.35;7.00;;;;;;;17.14;65.29;101503.16;4973365;28;20419;-71
2022/06/05 02:15:50;;;;;;;8.52;6.55;;;;;;;17.08;65.61;101495.47;5008342;28;20111;-72
2022/06/05 02:18:15;;;;;;;7.68;6.15;;;;;;;17.08;65.84;101484.47;4987437;28;20057;-71
2022/06/05 02:20:42;;;;;;;9.02;7.03;;;;;;;17.07;65.15;101477.22;4999119;28;20034;-72
2022/06/05 02:23:14;;;;;;;8.27;7.25;;;;;;;17.07;65.05;101480.84;5008530;28;20038;-72
2022/06/05 02:25:40;;;;;;;10.57;6.95;;;;;;;17.11;65.69;101472.31;5004700;28;20569;-73
2022/06/05 02:28:11;;;;;;;9.63;7.78;;;;;;;17.08;65.41;101467.97;5008037;28;20469;-70
2022/06/05 02:31:00;;;;;;;12.45;6.97;;;;;;;17.09;63.27;101459.56;5003225;28;20431;-73
2022/06/05 02:33:37;;;;;;;9.07;7.30;;;;;;;17.05;63.79;101446.25;5003559;28;20044;-73
2022/06/05 02:36:15;;;;;;;8.52;6.43;;;;;;;17.06;64.37;101453.47;5000790;28;20073;-72
2022/06/05 02:38:50;;;;;;;9.15;6.53;;;;;;;16.99;66.07;101442.16;5006186;28;20441;-71
2022/06/05 02:41:36;;;;;;;7.43;6.63;;;;;;;16.89;65.39;101432.16;5006522;28;20073;-72
2022/06/05 02:44:30;;;;;;;8.00;6.65;;;;;;;16.86;64.17;101433.28;5003683;28;20027;-73
2022/06/05 02:47:31;;;;;;;11.75;7.28;;;;;;;16.90;64.85;101426.50;4995671;28;20895;-73
2022/06/05 02:50:06;;;;;;;11.38;7.40;;;;;;;16.85;65.35;101406.81;4992724;28;20393;-73
2022/06/05 02:52:32;;;;;;;10.35;7.03;;;;;;;16.82;65.63;101410.69;5008122;28;20049;-72
2022/06/05 02:55:21;;;;;;;10.65;7.35;;;;;;;16.81;64.62;101395.22;4994639;28;20034;-73
2022/06/05 02:57:47;;;;;;;10.73;6.18;;;;;;;16.82;64.88;101398.84;5001610;28;20038;-73
2022/06/05 03:00:22;;;;;;;10.23;7.13;;;;;;;16.79;64.63;101391.75;5005677;28;20046;-73
2022/06/05 03:05:34;;;;;;;11.13;7.32;;;;;;;16.77;64.85;101377.25;4999633;28;20038;-73
2022/06/05 03:08:00;;;;;;;13.25;7.38;;;;;;;16.75;63.80;101370.19;5008020;28;20037;-73
2022/06/05 03:10:26;;;;;;;10.50;7.03;;;;;;;16.69;66.68;101365.19;5002957;28;20042;-73
2022/06/05 03:12:52;;;;;;;10.68;7.18;;;;;;;16.67;64.44;101370.81;4988845;28;20029;-71
2022/06/05 03:15:17;;;;;;;11.57;7.15;;;;;;;16.62;64.91;101367.63;5005389;28;20025;-73
2022/06/05 03:17:44;;;;;;;12.50;6.60;;;;;;;16.59;64.64;101359.66;5006974;28;20113;-73
2022/06/05 03:20:12;;;;;;;8.57;6.85;;;;;;;16.57;64.30;101339.69;4999433;28;20049;-74
2022/06/05 03:22:37;;;;;;;10.15;7.10;;;;;;;16.55;64.00;101337.09;5006386;28;20037;-74
2022/06/05 03:25:04;;;;;;;8.45;6.50;;;;;;;16.56;64.65;101343.47;5002893;28;20093;-74
2022/06/05 03:27:31;;;;;;;8.95;6.30;;;;;;;16.52;64.42;101334.63;4992553;28;20076;-72
2022/06/05 03:29:57;;;;;;;13.43;6.90;;;;;;;16.54;65.06;101337.22;5005458;28;20084;-72
2022/06/05 03:32:24;;;;;;;11.18;6.63;;;;;;;16.54;63.97;101335.34;4999170;28;20116;-74
2022/06/05 03:34:49;;;;;;;11.10;7.47;;;;;;;16.54;64.94;101353.69;4997031;28;20045;-72
2022/06/05 03:37:16;;;;;;;11.55;6.38;;;;;;;16.54;63.36;101353.69;4988223;28;20030;-74
2022/06/05 03:39:41;;;;;;;9.07;5.85;;;;;;;16.53;64.22;101365.69;4989926;28;20121;-73
2022/06/05 03:42:07;;;;;;;8.00;5.82;;;;;;;16.58;64.94;101375.25;5003276;28;20117;-73
2022/06/05 03:44:40;;;;;;;7.68;6.05;;;;;;;16.62;63.80;101386.84;5006658;28;20030;-73
2022/06/05 03:47:07;;;;;;;9.10;6.30;;;;;;;16.65;64.26;101382.97;5000230;28;20503;-73
2022/06/05 03:49:33;;;;;;;14.07;6.35;;;;;;;16.59;64.10;101374.25;4992177;28;20092;-73
2022/06/05 03:51:59;;;;;;;8.55;7.07;;;;;;;16.55;63.40;101380.16;5006421;28;20101;-73
2022/06/05 03:54:24;;;;;;;9.55;6.32;;;;;;;16.51;64.72;101378.72;4976635;28;20128;-72
2022/06/05 03:56:50;;;;;;;9.10;6.60;;;;;;;16.48;65.44;101382.59;4976315;28;20030;-72
2022/06/05 03:59:15;;;;;;;8.20;6.43;;;;;;;16.45;65.15;101390.22;5006800;28;20414;-73
2022/06/05 04:01:41;;;;;;;10.70;7.25;;;;;;;16.39;65.44;101383.41;5000573;28;20104;-71
2022/06/05 04:04:06;;;;;;;9.43;6.50;;;;;;;16.41;66.22;101394.25;5002159;28;20049;-72
2022/06/05 04:06:32;;;;;;;9.70;7.07;;;;;;;16.43;65.21;101386.75;4998497;28;20052;-72
2022/06/05 04:09:00;;;;;;;9.82;7.20;;;;;;;16.46;65.33;101379.13;5006924;28;20088;-73
2022/06/05 04:11:28;;;;;;;10.52;6.30;;;;;;;16.44;66.27;101383.88;4995047;28;20508;-71
2022/06/05 04:13:53;;;;;;;8.85;6.18;;;;;;;16.48;65.30;101388.09;4988139;28;20401;-74
2022/06/05 04:16:25;;;;;;;9.40;6.47;;;;;;;16.44;64.92;101378.38;5000754;28;20037;-73
2022/06/05 04:18:51;;;;;;;14.48;7.25;;;;;;;16.39;65.18;101369.69;4986504;28;20477;-74
2022/06/05 04:21:20;;;;;;;10.40;6.88;;;;;;;16.39;64.51;101369.69;4997730;28;20389;-69
2022/06/05 04:23:46;;;;;;;9.90;6.25;;;;;;;16.40;65.09;101367.78;5007158;28;20048;-73
2022/06/05 04:26:16;;;;;;;8.70;6.88;;;;;;;16.38;65.11;101367.06;5002456;28;20064;-73
2022/06/05 04:28:42;;;;;;;13.70;7.28;;;;;;;16.34;65.81;101366.47;4988815;28;20030;-69
2022/06/05 04:31:24;;;;;;;12.23;7.72;;;;;;;16.32;65.51;101365.75;4997869;28;20121;-73
2022/06/05 04:33:51;;;;;;;11.75;7.43;;;;;;;16.28;65.54;101367.03;5001517;28;20034;-75
2022/06/05 04:36:18;;;;;;;13.93;6.90;;;;;;;16.25;65.40;101364.53;4997067;28;20034;-72
2022/06/05 04:38:44;;;;;;;10.70;6.88;;;;;;;16.24;65.37;101363.66;4989670;28;20022;-73
2022/06/05 04:41:10;;;;;;;11.30;7.35;;;;;;;16.21;66.57;101361.19;5002699;28;20037;-74
2022/06/05 04:43:36;;;;;;;8.70;6.28;;;;;;;16.19;65.97;101352.22;5004986;28;20444;-74
2022/06/05 04:46:02;;;;;;;11.93;7.38;;;;;;;16.19;66.01;101354.09;5010015;28;20125;-69
2022/06/05 04:48:27;;;;;;;10.15;7.75;;;;;;;16.19;66.77;101351.34;5001924;28;20038;-73
2022/06/05 04:50:53;;;;;;;9.63;6.85;;;;;;;16.20;66.28;101353.09;5006688;28;20561;-73
2022/06/05 04:53:19;;;;;;;12.45;7.43;;;;;;;16.19;67.40;101354.09;4992468;28;20040;-73
2022/06/05 04:55:45;;;;;;;11.38;6.95;;;;;;;16.17;68.33;101359.72;5001781;28;20037;-72
2022/06/05 04:58:10;;;;;;;11.80;7.60;;;;;;;16.19;67.89;101354.97;5009501;28;20055;-72
2022/06/05 05:00:35;;;;;;;11.98;7.72;;;;;;;16.17;67.74;101359.72;5008547;28;20053;-74
2022/06/05 05:03:01;;;;;;;11.55;7.35;;;;;;;16.18;66.62;101355.09;4996491;28;20030;-72
2022/06/05 05:05:26;;;;;;;11.10;7.60;;;;;;;16.17;67.60;101354.22;5001583;28;20401;-71
2022/06/05 05:07:53;;;;;;;10.63;7.10;;;;;;;16.18;68.02;101355.97;5007519;28;20566;-73
2022/06/05 05:10:18;;;;;;;9.18;7.40;;;;;;;16.21;67.22;101350.19;5004378;28;20109;-73
2022/06/05 05:12:43;;;;;;;10.18;7.60;;;;;;;16.23;67.19;101355.56;5000968;28;20103;-73
2022/06/05 05:15:10;;;;;;;13.13;7.93;;;;;;;16.25;67.05;101367.28;5008991;28;20037;-74
2022/06/05 05:17:36;;;;;;;12.98;8.35;;;;;;;16.25;67.25;101370.91;4992235;28;20486;-73
2022/06/05 05:20:02;;;;;;;10.68;8.05;;;;;;;16.27;66.81;101370.75;4995923;28;20044;-74
2022/06/05 05:22:28;;;;;;;12.25;7.40;;;;;;;16.31;66.73;101370.34;4996539;28;20374;-74
2022/06/05 05:24:53;;;;;;;11.27;7.85;;;;;;;16.32;67.27;101368.50;5006118;28;20049;-69
2022/06/05 05:27:20;;;;;;;10.45;8.13;;;;;;;16.33;67.01;101362.84;5008006;28;20457;-74
2022/06/05 05:29:45;;;;;;;11.25;7.88;;;;;;;16.38;66.66;101370.69;5009346;28;20147;-73
2022/06/05 05:32:11;;;;;;;11.00;7.88;;;;;;;16.41;67.83;101369.53;4990816;28;20029;-73
2022/06/05 05:34:37;;;;;;;12.25;8.10;;;;;;;16.42;67.13;101374.03;4996828;28;20081;-74
2022/06/05 05:37:04;;;;;;;10.65;7.70;;;;;;;16.43;66.51;101362.91;5003778;28;20046;-73
2022/06/05 05:42:15;;;;;;;11.27;8.27;;;;;;;16.52;67.24;101356.59;5005626;28;20052;-74
2022/06/05 05:44:46;;;;;;;13.77;7.65;;;;;;;16.56;66.80;101359.94;5008831;28;20034;-73
2022/06/05 05:47:24;;;;;;;11.38;8.13;;;;;;;16.61;66.13;101362.28;5007389;28;20619;-73
2022/06/05 05:49:52;;;;;;;13.32;8.25;;;;;;;16.64;66.45;101373.84;4994791;28;20431;-74
2022/06/05 05:52:18;;;;;;;12.45;8.18;;;;;;;16.70;66.50;101350.47;5009066;28;20041;-70
2022/06/05 05:54:43;;;;;;;13.80;7.88;;;;;;;16.72;65.88;101360.31;4996433;28;20437;-73
2022/06/05 05:57:09;;;;;;;12.00;8.48;;;;;;;16.73;66.27;101356.56;4995784;28;20120;-75
2022/06/05 05:59:35;;;;;;;12.02;8.93;;;;;;;16.73;66.47;101352.94;4999452;28;20706;-73
2022/06/05 06:02:01;;;;;;;14.13;9.52;;;;;;;16.80;66.32;101346.75;5006983;28;20029;-72
2022/06/05 06:04:26;;;;;;;12.80;7.93;;;;;;;16.90;64.72;101343.19;5003136;28;20112;-74
2022/06/05 06:06:53;;;;;;;11.48;8.63;;;;;;;16.92;65.70;101338.41;5006696;28;20038;-71
2022/06/05 06:09:19;;;;;;;12.00;8.55;;;;;;;16.99;66.20;101334.97;5009253;28;20440;-74
2022/06/05 06:11:46;;;;;;;12.43;8.95;;;;;;;17.07;65.61;101332.38;4994467;28;20042;-74
2022/06/05 06:14:11;;;;;;;11.55;8.48;;;;;;;17.09;65.76;101326.72;4999596;28;20041;-74
2022/06/05 06:16:37;;;;;;;13.30;8.65;;;;;;;17.14;65.35;101324.44;5008286;28;20034;-71
2022/06/05 06:19:03;;;;;;;11.57;8.50;;;;;;;17.15;64.94;101317.03;4987537;28;20042;-73
2022/06/05 06:21:29;;;;;;;14.48;8.07;;;;;;;17.20;65.33;101311.97;5003754;28;20067;-73
2022/06/05 06:23:54;;;;;;;12.25;9.00;;;;;;;17.22;65.32;101305.34;5002069;28;20412;-72
2022/06/05 06:26:20;;;;;;;12.05;8.65;;;;;;;17.31;64.32;101307.22;5001733;28;20057;-73
2022/06/05 06:28:45;;;;;;;15.65;8.82;;;;;;;17.45;65.24;101307.81;5003701;28;20116;-74
2022/06/05 06:31:14;;;;;;;11.98;8.40;;;;;;;17.55;64.34;101305.94;5002980;28;20034;-72
2022/06/05 06:33:39;;;;;;;11.02;8.13;;;;;;;17.65;64.79;101295.78;4986240;28;20872;-73
2022/06/05 06:36:12;;;;;;;11.27;8.05;;;;;;;17.68;63.90;101286.38;5002855;28;20054;-71
2022/06/05 06:38:37;;;;;;;;;;;;;;;17.81;63.85;101296.09;5003292;28;20095;-73
2022/06/05 06:41:07;;;;;;;12.30;8.48;;;;;;;17.77;64.51;101282.78;5006025;28;20352;-75
2022/06/05 06:43:33;;;;;;;12.38;8.63;;;;;;;17.85;64.65;101275.50;5002832;28;20072;-73
2022/06/05 06:45:59;;;;;;;11.38;8.32;;;;;;;17.99;64.36;101276.06;4985516;28;20109;-72
2022/06/05 06:48:28;;;;;;;13.27;8.48;;;;;;;18.13;63.71;101281.09;5000041;28;20052;-73
2022/06/05 06:50:55;;;;;;;14.07;8.85;;;;;;;18.16;62.80;101267.03;5006408;28;20121;-74
2022/06/05 06:53:21;;;;;;;15.38;8.68;;;;;;;18.29;63.40;101270.31;5008063;28;20052;-74
2022/06/05 06:55:48;;;;;;;11.65;9.63;;;;;;;18.39;63.66;101255.63;4986318;28;20394;-72
2022/06/05 06:58:13;;;;;;;14.30;9.32;;;;;;;18.46;62.50;101257.63;5004394;28;20128;-74
2022/06/05 07:00:39;;;;;;;11.15;9.10;;;;;;;18.50;62.59;101255.44;4989184;28;20375;-74
2022/06/05 07:03:05;;;;;;;11.45;9.35;;;;;;;18.63;63.17;101272.47;4999038;28;20125;-73
2022/06/05 07:05:31;;;;;;;13.88;9.02;;;;;;;18.77;62.05;101263.72;5004797;28;20458;-71
2022/06/05 07:07:57;;;;;;;11.60;9.23;;;;;;;18.83;62.61;101271.38;5008101;28;20119;-74
2022/06/05 07:10:22;;;;;;;12.10;9.30;;;;;;;18.87;62.08;101249.88;5005935;28;20116;-75
2022/06/05 07:12:48;;;;;;;14.95;10.00;;;;;;;18.94;62.75;101251.00;4987775;28;20038;-74
2022/06/05 07:15:14;;;;;;;15.02;9.70;;;;;;;19.12;62.24;101242.75;5007053;28;20141;-74
2022/06/05 07:17:39;;;;;;;15.57;9.68;;;;;;;19.28;60.51;101240.13;4988722;28;20048;-72
2022/06/05 07:20:06;;;;;;;12.43;9.77;;;;;;;19.46;61.61;101242.03;4983861;28;20722;-74
2022/06/05 07:22:31;;;;;;;14.32;10.02;;;;;;;19.53;60.38;101234.81;5007875;28;20042;-73
2022/06/05 07:24:56;;;;;;;11.60;9.02;;;;;;;19.70;60.34;101247.78;4988215;28;20029;-71
2022/06/05 07:27:22;;;;;;;11.73;8.68;;;;;;;19.83;59.91;101244.59;5004228;28;20033;-74
2022/06/05 07:29:47;;;;;;;11.38;9.00;;;;;;;19.96;60.79;101233.09;5002848;28;20022;-72
2022/06/05 07:32:13;;;;;;;11.52;8.98;;;;;;;20.08;59.58;101229.91;4990129;28;20060;-74
2022/06/05 07:34:39;;;;;;;11.50;9.10;;;;;;;20.14;59.81;101239.44;4998360;28;20034;-73
2022/06/05 07:37:05;;;;;;;12.30;8.90;;;;;;;20.12;58.59;101227.69;4984206;28;20042;-73
2022/06/05 07:39:30;;;;;;;13.63;9.82;;;;;;;20.19;59.48;101220.50;5001807;28;20631;-74
2022/06/05 07:41:59;;;;;;;13.43;9.13;;;;;;;20.40;59.00;101217.28;5002031;28;20068;-73
2022/06/05 07:44:25;;;;;;;11.93;9.15;;;;;;;20.58;59.81;101212.56;5006443;28;20061;-74
2022/06/05 07:46:51;;;;;;;10.85;9.73;;;;;;;20.69;58.73;101216.03;5006900;28;20731;-73
2022/06/05 07:49:17;;;;;;;12.43;10.02;;;;;;;20.77;57.69;101207.78;4989228;28;20057;-73
2022/06/05 07:54:29;;;;;;;10.52;9.45;;;;;;;20.95;58.23;101213.19;5004665;28;20042;-72
2022/06/05 07:57:18;;;;;;;15.07;10.15;;;;;;;21.04;58.38;101207.50;4984514;28;20075;-72
2022/06/05 07:59:46;;;;;;;11.70;9.25;;;;;;;21.05;57.08;101206.47;4999241;28;20052;-72
2022/06/05 08:02:18;;;;;;;13.60;10.52;;;;;;;21.14;57.63;101199.91;4984947;28;20042;-74
2022/06/05 08:04:44;;;;;;;13.18;10.00;;;;;;;21.30;57.90;101193.50;5000294;28;20076;-69
2022/06/05 08:07:11;;;;;;;11.00;9.75;;;;;;;21.48;56.90;101193.34;4998175;28;20033;-74
2022/06/05 08:09:39;;;;;;;10.80;9.68;;;;;;;21.65;56.15;101181.22;4997112;28;20405;-73
2022/06/05 08:12:07;;;;;;;15.02;9.48;;;;;;;21.76;57.63;101191.06;4997886;28;20032;-74
2022/06/05 08:14:35;;;;;;;11.80;10.25;;;;;;;21.89;55.27;101185.84;5005782;28;20500;-75
2022/06/05 08:17:04;;;;;;;13.25;10.25;;;;;;;21.96;56.88;101177.69;5004816;28;20040;-74
2022/06/05 08:19:29;;;;;;;10.90;9.75;;;;;;;22.22;55.19;101174.69;5000834;28;20172;-74
2022/06/05 08:21:55;;;;;;;11.07;9.88;;;;;;;22.48;55.18;101182.75;5006829;28;20390;-74
2022/06/05 08:24:22;;;;;;;11.10;9.80;;;;;;;22.72;54.14;101176.19;5006866;28;20358;-74
2022/06/05 08:26:47;;;;;;;16.35;10.23;;;;;;;23.03;53.24;101172.53;5003929;28;20042;-72
2022/06/05 08:29:13;;;;;;;12.90;10.30;;;;;;;23.39;52.64;101170.00;5006880;28;20144;-74
2022/06/05 08:31:38;;;;;;;14.43;10.40;;;;;;;23.54;51.83;101172.81;5003523;28;20025;-73
2022/06/05 08:34:05;;;;;;;10.23;9.10;;;;;;;23.78;53.18;101169.84;5002755;28;20037;-74
2022/06/05 08:36:32;;;;;;;11.10;10.00;;;;;;;23.95;51.63;101164.97;5002918;28;20037;-74
2022/06/05 08:42:04;;;;;;;15.10;9.90;;;;;;;24.44;52.05;101167.19;5004804;28;20103;-75
2022/06/05 08:45:05;;;;;;;10.40;9.10;;;;;;;24.73;52.21;101165.38;5005228;28;20529;-73
2022/06/05 08:47:39;;;;;;;10.27;9.27;;;;;;;24.74;50.95;101167.09;5006297;28;20049;-71
2022/06/05 08:50:30;;;;;;;11.55;8.90;;;;;;;24.89;51.64;101173.47;4995809;28;20038;-74
2022/06/05 08:53:06;;;;;;;11.73;9.40;;;;;;;24.86;50.90;101169.19;5005089;28;20477;-72
2022/06/05 08:55:38;;;;;;;11.65;10.45;;;;;;;24.66;50.30;101168.06;4996651;28;20042;-74
2022/06/05 08:58:26;;;;;;;12.45;10.48;;;;;;;24.56;50.96;101175.88;5002202;28;20041;-75
2022/06/05 09:01:01;;;;;;;12.98;10.13;;;;;;;24.42;51.19;101178.47;4988220;28;20128;-75
2022/06/05 09:03:42;;;;;;;13.68;11.20;;;;;;;24.36;50.70;101173.69;5001996;28;20046;-75
2022/06/05 09:06:30;;;;;;;13.52;11.18;;;;;;;24.26;52.25;101172.25;5004525;28;20099;-74
2022/06/05 09:08:58;;;;;;;11.57;10.38;;;;;;;24.09;53.54;101177.13;4968414;28;20038;-71
2022/06/05 09:11:48;;;;;;;11.85;9.90;;;;;;;24.09;52.78;101175.22;4992207;28;20121;-73
2022/06/05 09:14:30;;;;;;;11.30;10.10;;;;;;;23.90;53.39;101176.66;5006046;28;20042;-74
2022/06/05 09:17:02;;;;;;;12.15;10.15;;;;;;;23.86;54.51;101185.56;5000134;28;20060;-73
2022/06/05 09:19:29;;;;;;;;;;;;;;;24.00;53.29;101176.34;4999740;28;20476;-74
2022/06/05 09:22:09;;;;;;;13.20;11.43;;;;;;;23.59;52.91;101173.09;5005210;28;19971;-74
2022/06/05 09:24:40;;;;;;;11.52;10.43;;;;;;;23.43;54.13;101166.66;5001727;28;20452;-74
2022/06/05 09:27:42;;;;;;;12.18;10.80;;;;;;;23.43;54.47;101166.66;5003084;28;20042;-73
2022/06/05 09:30:14;;;;;;;13.37;11.40;;;;;;;23.36;53.61;101168.47;5001601;28;20054;-73
2022/06/05 09:32:53;;;;;;;15.07;11.68;;;;;;;23.32;55.41;101169.91;4998021;28;20551;-73
2022/06/05 09:35:26;;;;;;;13.05;11.65;;;;;;;23.25;55.79;101168.91;4996652;28;20046;-73
2022/06/05 09:38:01;;;;;;;14.95;11.95;;;;;;;23.23;56.09;101164.59;5004863;28;20538;-73
2022/06/05 09:40:30;;;;;;;12.75;11.07;;;;;;;23.19;56.13;101160.47;5004725;28;20030;-74
2022/06/05 09:43:28;;;;;;;13.48;12.07;;;;;;;23.05;55.43;101163.00;4986915;28;20096;-71
2022/06/05 09:46:20;;;;;;;16.67;12.65;;;;;;;22.94;55.29;101152.31;5008785;28;20053;-73
2022/06/05 09:48:58;;;;;;;14.23;12.05;;;;;;;22.90;55.99;101150.97;5001137;28;20053;-73
2022/06/05 09:51:24;;;;;;;18.48;12.55;;;;;;;22.79;56.24;101149.44;5006499;28;20050;-72
2022/06/05 09:53:55;;;;;;;13.18;11.90;;;;;;;22.75;55.89;101152.75;5008090;28;20030;-72
2022/06/05 09:58:24;;;;;;;14.90;12.20;;;;;;;22.63;56.01;101142.09;5002185;28;20089;-73
2022/06/05 09:59:34;;;;;;;12.60;11.30;;;;;;;22.51;57.19;101137.13;5007782;28;20061;-69
2022/06/05 10:02:02;;;;;;;14.48;12.50;;;;;;;22.42;56.52;101130.78;5008016;28;20358;-73
2022/06/05 10:04:31;;;;;;;13.98;12.57;;;;;;;22.42;57.25;101123.31;5003672;28;20026;-74
2022/06/05 10:07:06;;;;;;;16.48;12.40;;;;;;;22.41;57.57;101117.97;5007153;28;20037;-70
2022/06/05 10:09:34;;;;;;;13.13;11.88;;;;;;;22.30;57.91;101116.47;4991846;28;20066;-73
2022/06/05 10:12:03;;;;;;;15.63;12.27;;;;;;;22.35;57.16;101115.91;4990202;28;20116;-72
2022/06/05 10:14:47;;;;;;;17.17;12.15;;;;;;;22.33;59.27;101113.31;5007979;28;20018;-72
2022/06/05 10:17:24;;;;;;;15.85;12.00;;;;;;;22.32;58.11;101110.72;5001804;28;20045;-72
2022/06/05 10:20:09;;;;;;;13.07;11.52;;;;;;;22.35;58.19;101116.78;5002590;28;20042;-72
2022/06/05 10:22:48;;;;;;;13.90;12.43;;;;;;;22.33;58.63;101105.00;5000126;28;20034;-73
2022/06/05 10:25:35;;;;;;;13.73;12.32;;;;;;;22.28;60.01;101112.13;4988315;28;22345;-73
2022/06/05 10:28:08;;;;;;;12.93;11.57;;;;;;;22.26;59.50;101112.31;4988456;28;20061;-73
2022/06/05 10:30:41;;;;;;;15.63;12.20;;;;;;;22.31;59.54;101109.00;5007058;28;21435;-73
2022/06/05 10:33:13;;;;;;;13.73;12.30;;;;;;;22.31;59.42;101112.63;5004016;28;20520;-71
2022/06/05 10:35:59;;;;;;;13.75;12.45;;;;;;;22.31;60.72;101109.00;4987616;28;20514;-73
2022/06/05 10:38:37;;;;;;;15.02;12.07;;;;;;;22.31;59.95;101107.09;5005365;28;20199;-72
2022/06/05 10:41:18;;;;;;;17.60;12.85;;;;;;;22.29;59.94;101102.75;5003301;28;20037;-73
2022/06/05 10:44:01;;;;;;;14.02;12.73;;;;;;;22.31;59.83;101097.91;5007873;28;20092;-72
2022/06/05 10:46:28;;;;;;;15.15;12.48;;;;;;;22.35;60.53;101104.84;5006631;28;20034;-71
2022/06/05 10:49:00;;;;;;;17.73;12.88;;;;;;;22.42;60.33;101105.81;4993436;28;20066;-71
2022/06/05 10:51:47;;;;;;;17.40;13.45;;;;;;;22.45;60.78;101099.91;5001778;28;20077;-70
2022/06/05 10:54:23;;;;;;;15.63;13.48;;;;;;;22.40;61.42;101110.69;5000327;28;20446;-72
2022/06/05 10:57:18;;;;;;;15.27;13.32;;;;;;;22.27;62.27;101102.09;4993359;28;20038;-72
2022/06/05 10:59:43;;;;;;;15.57;13.60;;;;;;;22.06;64.07;101108.25;4999127;28;20147;-71
2022/06/05 11:02:11;;;;;;;17.15;14.32;;;;;;;21.88;65.79;101098.25;5000249;28;20114;-71
2022/06/05 11:04:56;;;;;;;18.02;14.27;;;;;;;21.74;64.28;101098.13;5001592;28;20165;-71
2022/06/05 11:07:58;;;;;;;16.35;14.60;;;;;;;21.62;64.58;101100.41;5002908;28;20731;-71
2022/06/05 11:13:42;;;;;;;16.95;13.85;;;;;;;21.39;67.31;101084.53;5002797;28;19921;-71
2022/06/05 11:16:19;;;;;;;16.10;14.43;;;;;;;21.29;67.95;101085.75;5005008;28;20046;-70
2022/06/05 11:19:08;;;;;;;17.02;13.98;;;;;;;21.24;67.50;101091.78;5003185;28;20041;-71
2022/06/05 11:21:34;;;;;;;16.30;13.70;;;;;;;21.17;68.53;101084.34;4987041;28;20042;-71
2022/06/05 11:24:01;;;;;;;21.88;14.95;;;;;;;21.13;69.41;101078.34;5004446;28;20492;-69
2022/06/05 11:26:33;;;;;;;17.25;14.20;;;;;;;21.06;69.54;101078.16;5004136;28;20124;-70
2022/06/05 11:29:12;;;;;;;;;;;;;;;21.11;66.39;101078.47;5005395;28;20049;-72
2022/06/05 11:32:04;;;;;;;21.52;15.15;;;;;;;20.89;70.31;101079.22;5004357;28;19917;-72
2022/06/05 11:34:48;;;;;;;19.45;15.57;;;;;;;20.82;70.86;101078.16;4983751;28;20034;-72
2022/06/05 11:37:16;;;;;;;18.08;15.52;;;;;;;20.67;71.28;101075.22;5003882;28;20061;-71
2022/06/05 11:40:12;;;;;;;23.27;16.15;;;;;;;20.58;71.54;101076.25;5003492;28;20052;-71
2022/06/05 11:42:47;;;;;;;19.17;14.88;;;;;;;20.49;72.25;101072.59;5004154;28;20033;-71
2022/06/05 11:45:51;;;;;;;20.15;15.88;;;;;;;20.46;72.00;101067.34;5001705;28;20072;-70
2022/06/05 11:48:27;;;;;;;18.90;15.98;;;;;;;20.35;72.90;101063.03;4961903;28;20041;-69
2022/06/05 11:51:26;;;;;;;22.85;16.30;;;;;;;20.28;72.21;101063.88;5003554;28;20038;-71
2022/06/05 11:54:12;;;;;;;21.83;17.30;;;;;;;20.19;73.08;101059.34;5005660;28;20030;-71